sensor_id;sensor_type;location;lat;lon;timestamp;P1;durP1;ratioP1;P2;durP2;ratioP2
35114;SDS011;21292;52.416;13.046;2023-04-29T00:01:14;18.20;;;12.20;;
35114;SDS011;21292;52.416;13.046;2023-04-29T00:03:44;20.85;;;13.38;;
35114;SDS011;21292;52.416;13.046;2023-04-29T00:06:13;23.10;;;12.75;;
35114;SDS011;21292;52.416;13.046;2023-04-29T00:08:41;16.30;;;13.18;;
35114;SDS011;21292;52.416;13.046;2023-04-29T00:11:11;20.35;;;14.15;;
35114;SDS011;21292;52.416;13.046;2023-04-29T00:13:39;20.65;;;13.48;;
35114;SDS011;21292;52.416;13.046;2023-04-29T00:16:07;17.63;;;12.65;;
35114;SDS011;21292;52.416;13.046;2023-04-29T00:18:37;16.38;;;13.07;;
35114;SDS011;21292;52.416;13.046;2023-04-29T00:21:06;19.67;;;12.52;;
35114;SDS011;21292;52.416;13.046;2023-04-29T00:23:34;19.10;;;14.38;;
35114;SDS011;21292;52.416;13.046;2023-04-29T00:26:03;23.15;;;14.23;;
35114;SDS011;21292;52.416;13.046;2023-04-29T00:28:31;19.42;;;12.63;;
35114;SDS011;21292;52.416;13.046;2023-04-29T00:31:02;16.98;;;13.30;;
35114;SDS011;21292;52.416;13.046;2023-04-29T00:33:31;22.88;;;13.68;;
35114;SDS011;21292;52.416;13.046;2023-04-29T00:35:59;18.77;;;14.57;;
35114;SDS011;21292;52.416;13.046;2023-04-29T00:38:30;25.48;;;15.77;;
35114;SDS011;21292;52.416;13.046;2023-04-29T00:40:58;23.52;;;15.57;;
35114;SDS011;21292;52.416;13.046;2023-04-29T00:43:26;21.67;;;16.30;;
35114;SDS011;21292;52.416;13.046;2023-04-29T00:45:54;23.17;;;16.70;;
35114;SDS011;21292;52.416;13.046;2023-04-29T00:48:23;25.10;;;17.30;;
35114;SDS011;21292;52.416;13.046;2023-04-29T00:50:53;25.88;;;18.13;;
35114;SDS011;21292;52.416;13.046;2023-04-29T00:53:22;25.42;;;16.75;;
35114;SDS011;21292;52.416;13.046;2023-04-29T00:55:52;26.58;;;18.30;;
35114;SDS011;21292;52.416;13.046;2023-04-29T00:58:20;23.05;;;17.92;;
35114;SDS011;21292;52.416;13.046;2023-04-29T01:00:49;26.80;;;18.88;;
35114;SDS011;21292;52.416;13.046;2023-04-29T01:05:51;31.05;;;18.42;;
35114;SDS011;21292;52.416;13.046;2023-04-29T01:11:13;27.63;;;19.17;;
35114;SDS011;21292;52.416;13.046;2023-04-29T01:13:45;28.35;;;20.58;;
35114;SDS011;21292;52.416;13.046;2023-04-29T01:19:05;31.42;;;21.13;;
35114;SDS011;21292;52.416;13.046;2023-04-29T01:21:45;30.65;;;20.58;;
35114;SDS011;21292;52.416;13.046;2023-04-29T01:24:16;27.17;;;20.23;;
35114;SDS011;21292;52.416;13.046;2023-04-29T01:26:45;29.35;;;20.98;;
35114;SDS011;21292;52.416;13.046;2023-04-29T01:29:20;29.70;;;22.42;;
35114;SDS011;21292;52.416;13.046;2023-04-29T01:31:54;30.90;;;23.42;;
35114;SDS011;21292;52.416;13.046;2023-04-29T01:34:30;29.67;;;20.90;;
35114;SDS011;21292;52.416;13.046;2023-04-29T01:37:03;35.53;;;22.88;;
35114;SDS011;21292;52.416;13.046;2023-04-29T01:39:36;31.95;;;22.40;;
35114;SDS011;21292;52.416;13.046;2023-04-29T01:42:09;32.92;;;22.67;;
35114;SDS011;21292;52.416;13.046;2023-04-29T01:44:44;30.55;;;22.83;;
35114;SDS011;21292;52.416;13.046;2023-04-29T01:47:14;31.30;;;22.92;;
35114;SDS011;21292;52.416;13.046;2023-04-29T01:49:43;34.03;;;23.48;;
35114;SDS011;21292;52.416;13.046;2023-04-29T01:52:13;34.53;;;25.25;;
35114;SDS011;21292;52.416;13.046;2023-04-29T01:54:43;34.47;;;24.65;;
35114;SDS011;21292;52.416;13.046;2023-04-29T01:57:12;39.33;;;27.67;;
35114;SDS011;21292;52.416;13.046;2023-04-29T01:59:40;40.25;;;26.95;;
35114;SDS011;21292;52.416;13.046;2023-04-29T02:02:08;42.10;;;27.15;;
35114;SDS011;21292;52.416;13.046;2023-04-29T02:04:37;43.90;;;29.13;;
35114;SDS011;21292;52.416;13.046;2023-04-29T02:07:06;47.60;;;31.05;;
35114;SDS011;21292;52.416;13.046;2023-04-29T02:09:35;42.70;;;30.40;;
35114;SDS011;21292;52.416;13.046;2023-04-29T02:12:05;53.05;;;33.30;;
35114;SDS011;21292;52.416;13.046;2023-04-29T02:14:34;48.40;;;32.88;;
35114;SDS011;21292;52.416;13.046;2023-04-29T02:17:03;53.20;;;34.22;;
35114;SDS011;21292;52.416;13.046;2023-04-29T02:19:32;52.75;;;35.30;;
35114;SDS011;21292;52.416;13.046;2023-04-29T02:22:01;50.00;;;33.65;;
35114;SDS011;21292;52.416;13.046;2023-04-29T02:24:30;50.45;;;32.60;;
35114;SDS011;21292;52.416;13.046;2023-04-29T02:26:58;57.92;;;37.28;;
35114;SDS011;21292;52.416;13.046;2023-04-29T02:29:29;54.83;;;35.22;;
35114;SDS011;21292;52.416;13.046;2023-04-29T02:31:58;61.60;;;36.15;;
35114;SDS011;21292;52.416;13.046;2023-04-29T02:34:28;60.53;;;37.28;;
35114;SDS011;21292;52.416;13.046;2023-04-29T02:36:57;58.53;;;37.38;;
35114;SDS011;21292;52.416;13.046;2023-04-29T02:39:27;57.58;;;38.38;;
35114;SDS011;21292;52.416;13.046;2023-04-29T02:41:56;60.55;;;38.92;;
35114;SDS011;21292;52.416;13.046;2023-04-29T02:44:28;67.75;;;42.15;;
35114;SDS011;21292;52.416;13.046;2023-04-29T02:46:58;67.68;;;40.55;;
35114;SDS011;21292;52.416;13.046;2023-04-29T02:49:28;68.82;;;41.88;;
35114;SDS011;21292;52.416;13.046;2023-04-29T02:51:57;65.47;;;40.78;;
35114;SDS011;21292;52.416;13.046;2023-04-29T02:54:26;66.40;;;42.38;;
35114;SDS011;21292;52.416;13.046;2023-04-29T02:56:54;75.85;;;42.13;;
35114;SDS011;21292;52.416;13.046;2023-04-29T02:59:24;70.18;;;41.55;;
35114;SDS011;21292;52.416;13.046;2023-04-29T03:01:57;78.85;;;43.17;;
35114;SDS011;21292;52.416;13.046;2023-04-29T03:04:26;73.30;;;44.33;;
35114;SDS011;21292;52.416;13.046;2023-04-29T03:06:55;76.15;;;45.30;;
35114;SDS011;21292;52.416;13.046;2023-04-29T03:09:24;77.15;;;43.92;;
35114;SDS011;21292;52.416;13.046;2023-04-29T03:11:52;81.95;;;46.10;;
35114;SDS011;21292;52.416;13.046;2023-04-29T03:14:21;84.28;;;45.55;;
35114;SDS011;21292;52.416;13.046;2023-04-29T03:16:49;81.07;;;45.13;;
35114;SDS011;21292;52.416;13.046;2023-04-29T03:19:19;83.32;;;45.63;;
35114;SDS011;21292;52.416;13.046;2023-04-29T03:21:47;84.20;;;46.00;;
35114;SDS011;21292;52.416;13.046;2023-04-29T03:24:19;85.15;;;45.42;;
35114;SDS011;21292;52.416;13.046;2023-04-29T03:26:47;96.10;;;48.20;;
35114;SDS011;21292;52.416;13.046;2023-04-29T03:29:15;84.15;;;48.92;;
35114;SDS011;21292;52.416;13.046;2023-04-29T03:31:43;93.25;;;47.78;;
35114;SDS011;21292;52.416;13.046;2023-04-29T03:34:12;94.10;;;49.22;;
35114;SDS011;21292;52.416;13.046;2023-04-29T03:36:42;105.10;;;49.95;;
35114;SDS011;21292;52.416;13.046;2023-04-29T03:39:10;96.15;;;49.30;;
35114;SDS011;21292;52.416;13.046;2023-04-29T03:41:39;92.50;;;48.80;;
35114;SDS011;21292;52.416;13.046;2023-04-29T03:44:08;94.82;;;49.83;;
35114;SDS011;21292;52.416;13.046;2023-04-29T03:46:39;101.55;;;50.33;;
35114;SDS011;21292;52.416;13.046;2023-04-29T03:49:08;92.70;;;49.17;;
35114;SDS011;21292;52.416;13.046;2023-04-29T03:51:36;97.20;;;51.60;;
35114;SDS011;21292;52.416;13.046;2023-04-29T03:54:06;98.03;;;50.72;;
35114;SDS011;21292;52.416;13.046;2023-04-29T03:56:36;102.80;;;52.10;;
35114;SDS011;21292;52.416;13.046;2023-04-29T03:59:05;102.38;;;51.28;;
35114;SDS011;21292;52.416;13.046;2023-04-29T04:01:34;92.55;;;48.78;;
35114;SDS011;21292;52.416;13.046;2023-04-29T04:04:05;103.38;;;49.28;;
35114;SDS011;21292;52.416;13.046;2023-04-29T04:06:33;102.57;;;52.60;;
35114;SDS011;21292;52.416;13.046;2023-04-29T04:09:11;103.88;;;52.40;;
35114;SDS011;21292;52.416;13.046;2023-04-29T04:11:54;100.45;;;51.00;;
35114;SDS011;21292;52.416;13.046;2023-04-29T04:14:22;90.30;;;47.42;;
35114;SDS011;21292;52.416;13.046;2023-04-29T04:16:53;107.25;;;51.30;;
35114;SDS011;21292;52.416;13.046;2023-04-29T04:19:22;96.38;;;49.95;;
35114;SDS011;21292;52.416;13.046;2023-04-29T04:21:55;111.32;;;52.33;;
35114;SDS011;21292;52.416;13.046;2023-04-29T04:24:25;100.28;;;49.22;;
35114;SDS011;21292;52.416;13.046;2023-04-29T04:26:53;102.07;;;51.15;;
35114;SDS011;21292;52.416;13.046;2023-04-29T04:29:21;110.72;;;51.60;;
35114;SDS011;21292;52.416;13.046;2023-04-29T04:31:53;116.65;;;53.55;;
35114;SDS011;21292;52.416;13.046;2023-04-29T04:34:23;106.13;;;51.65;;
35114;SDS011;21292;52.416;13.046;2023-04-29T04:36:53;116.55;;;53.47;;
35114;SDS011;21292;52.416;13.046;2023-04-29T04:39:24;111.32;;;53.45;;
35114;SDS011;21292;52.416;13.046;2023-04-29T04:41:55;114.70;;;51.20;;
35114;SDS011;21292;52.416;13.046;2023-04-29T04:44:24;116.28;;;54.85;;
35114;SDS011;21292;52.416;13.046;2023-04-29T04:46:52;108.25;;;51.30;;
35114;SDS011;21292;52.416;13.046;2023-04-29T04:49:20;110.53;;;50.83;;
35114;SDS011;21292;52.416;13.046;2023-04-29T04:51:48;114.60;;;52.42;;
35114;SDS011;21292;52.416;13.046;2023-04-29T04:54:17;112.15;;;52.70;;
35114;SDS011;21292;52.416;13.046;2023-04-29T04:56:46;119.22;;;53.65;;
35114;SDS011;21292;52.416;13.046;2023-04-29T05:01:45;111.45;;;51.65;;
35114;SDS011;21292;52.416;13.046;2023-04-29T05:04:13;122.57;;;54.50;;
35114;SDS011;21292;52.416;13.046;2023-04-29T05:06:42;118.55;;;53.47;;
35114;SDS011;21292;52.416;13.046;2023-04-29T05:09:10;108.20;;;49.50;;
35114;SDS011;21292;52.416;13.046;2023-04-29T05:11:41;112.30;;;52.55;;
35114;SDS011;21292;52.416;13.046;2023-04-29T05:14:13;114.47;;;52.13;;
35114;SDS011;21292;52.416;13.046;2023-04-29T05:16:44;110.47;;;52.22;;
35114;SDS011;21292;52.416;13.046;2023-04-29T05:19:12;114.80;;;50.65;;
35114;SDS011;21292;52.416;13.046;2023-04-29T05:21:41;109.72;;;50.28;;
35114;SDS011;21292;52.416;13.046;2023-04-29T05:24:09;109.22;;;51.20;;
35114;SDS011;21292;52.416;13.046;2023-04-29T05:26:38;110.10;;;51.30;;
35114;SDS011;21292;52.416;13.046;2023-04-29T05:29:09;116.30;;;51.22;;
35114;SDS011;21292;52.416;13.046;2023-04-29T05:31:39;104.05;;;49.67;;
35114;SDS011;21292;52.416;13.046;2023-04-29T05:34:12;105.75;;;49.15;;
35114;SDS011;21292;52.416;13.046;2023-04-29T05:36:41;107.57;;;49.67;;
35114;SDS011;21292;52.416;13.046;2023-04-29T05:39:24;108.95;;;49.50;;
35114;SDS011;21292;52.416;13.046;2023-04-29T05:41:53;116.32;;;51.05;;
35114;SDS011;21292;52.416;13.046;2023-04-29T05:44:21;109.07;;;49.63;;
35114;SDS011;21292;52.416;13.046;2023-04-29T05:46:51;106.22;;;48.13;;
35114;SDS011;21292;52.416;13.046;2023-04-29T05:49:23;109.15;;;47.33;;
35114;SDS011;21292;52.416;13.046;2023-04-29T05:51:53;108.75;;;49.70;;
35114;SDS011;21292;52.416;13.046;2023-04-29T05:54:22;105.72;;;48.15;;
35114;SDS011;21292;52.416;13.046;2023-04-29T05:56:50;113.25;;;47.88;;
35114;SDS011;21292;52.416;13.046;2023-04-29T05:59:20;98.97;;;44.67;;
35114;SDS011;21292;52.416;13.046;2023-04-29T06:01:48;105.80;;;44.63;;
35114;SDS011;21292;52.416;13.046;2023-04-29T06:04:18;96.63;;;44.25;;
35114;SDS011;21292;52.416;13.046;2023-04-29T06:06:50;110.63;;;44.25;;
35114;SDS011;21292;52.416;13.046;2023-04-29T06:09:19;94.72;;;42.30;;
35114;SDS011;21292;52.416;13.046;2023-04-29T06:11:55;93.18;;;40.80;;
35114;SDS011;21292;52.416;13.046;2023-04-29T06:14:27;93.78;;;40.45;;
35114;SDS011;21292;52.416;13.046;2023-04-29T06:16:55;77.32;;;37.80;;
35114;SDS011;21292;52.416;13.046;2023-04-29T06:19:25;84.60;;;37.92;;
35114;SDS011;21292;52.416;13.046;2023-04-29T06:21:53;84.82;;;38.65;;
35114;SDS011;21292;52.416;13.046;2023-04-29T06:24:22;80.32;;;36.33;;
35114;SDS011;21292;52.416;13.046;2023-04-29T06:26:52;77.25;;;34.28;;
35114;SDS011;21292;52.416;13.046;2023-04-29T06:29:21;83.10;;;37.35;;
35114;SDS011;21292;52.416;13.046;2023-04-29T06:31:50;81.03;;;36.67;;
35114;SDS011;21292;52.416;13.046;2023-04-29T06:34:38;75.63;;;34.08;;
35114;SDS011;21292;52.416;13.046;2023-04-29T06:37:06;76.90;;;38.00;;
35114;SDS011;21292;52.416;13.046;2023-04-29T06:39:34;78.03;;;37.45;;
35114;SDS011;21292;52.416;13.046;2023-04-29T06:42:02;76.07;;;38.88;;
35114;SDS011;21292;52.416;13.046;2023-04-29T06:44:31;72.85;;;36.78;;
35114;SDS011;21292;52.416;13.046;2023-04-29T06:46:59;71.30;;;37.28;;
35114;SDS011;21292;52.416;13.046;2023-04-29T06:49:29;74.32;;;37.20;;
35114;SDS011;21292;52.416;13.046;2023-04-29T06:52:04;70.68;;;35.78;;
35114;SDS011;21292;52.416;13.046;2023-04-29T06:54:32;78.10;;;38.00;;
35114;SDS011;21292;52.416;13.046;2023-04-29T06:57:02;74.85;;;38.40;;
35114;SDS011;21292;52.416;13.046;2023-04-29T06:59:33;72.55;;;36.92;;
35114;SDS011;21292;52.416;13.046;2023-04-29T07:02:01;77.22;;;38.00;;
35114;SDS011;21292;52.416;13.046;2023-04-29T07:04:29;74.63;;;36.60;;
35114;SDS011;21292;52.416;13.046;2023-04-29T07:06:58;76.07;;;36.47;;
35114;SDS011;21292;52.416;13.046;2023-04-29T07:09:28;79.25;;;36.17;;
35114;SDS011;21292;52.416;13.046;2023-04-29T07:11:56;75.03;;;37.72;;
35114;SDS011;21292;52.416;13.046;2023-04-29T07:14:24;71.18;;;34.65;;
35114;SDS011;21292;52.416;13.046;2023-04-29T07:16:54;69.13;;;33.55;;
35114;SDS011;21292;52.416;13.046;2023-04-29T07:19:22;76.25;;;34.92;;
35114;SDS011;21292;52.416;13.046;2023-04-29T07:21:51;69.35;;;33.22;;
35114;SDS011;21292;52.416;13.046;2023-04-29T07:24:20;67.20;;;34.10;;
35114;SDS011;21292;52.416;13.046;2023-04-29T07:26:51;67.18;;;34.60;;
35114;SDS011;21292;52.416;13.046;2023-04-29T07:29:19;59.33;;;34.00;;
35114;SDS011;21292;52.416;13.046;2023-04-29T07:31:48;71.95;;;34.42;;
35114;SDS011;21292;52.416;13.046;2023-04-29T07:34:16;72.93;;;35.60;;
35114;SDS011;21292;52.416;13.046;2023-04-29T07:36:44;67.38;;;33.42;;
35114;SDS011;21292;52.416;13.046;2023-04-29T07:39:13;69.18;;;34.92;;
35114;SDS011;21292;52.416;13.046;2023-04-29T07:41:44;66.57;;;32.88;;
35114;SDS011;21292;52.416;13.046;2023-04-29T07:44:14;65.68;;;31.90;;
35114;SDS011;21292;52.416;13.046;2023-04-29T07:46:42;54.00;;;29.50;;
35114;SDS011;21292;52.416;13.046;2023-04-29T07:49:11;54.90;;;31.63;;
35114;SDS011;21292;52.416;13.046;2023-04-29T07:51:39;59.00;;;31.10;;
35114;SDS011;21292;52.416;13.046;2023-04-29T07:54:08;59.72;;;31.85;;
35114;SDS011;21292;52.416;13.046;2023-04-29T07:56:36;57.67;;;30.45;;
35114;SDS011;21292;52.416;13.046;2023-04-29T07:59:04;58.58;;;30.73;;
35114;SDS011;21292;52.416;13.046;2023-04-29T08:01:38;50.65;;;30.08;;
35114;SDS011;21292;52.416;13.046;2023-04-29T08:04:07;50.38;;;28.65;;
35114;SDS011;21292;52.416;13.046;2023-04-29T08:06:35;51.33;;;30.08;;
35114;SDS011;21292;52.416;13.046;2023-04-29T08:09:14;54.25;;;28.83;;
35114;SDS011;21292;52.416;13.046;2023-04-29T08:11:43;52.72;;;29.27;;
35114;SDS011;21292;52.416;13.046;2023-04-29T08:14:12;56.90;;;30.10;;
35114;SDS011;21292;52.416;13.046;2023-04-29T08:16:45;55.33;;;27.65;;
35114;SDS011;21292;52.416;13.046;2023-04-29T08:19:14;49.05;;;26.35;;
35114;SDS011;21292;52.416;13.046;2023-04-29T08:21:42;55.97;;;29.15;;
35114;SDS011;21292;52.416;13.046;2023-04-29T08:24:23;60.33;;;28.33;;
35114;SDS011;21292;52.416;13.046;2023-04-29T08:26:52;48.00;;;27.63;;
35114;SDS011;21292;52.416;13.046;2023-04-29T08:29:26;53.63;;;28.17;;
35114;SDS011;21292;52.416;13.046;2023-04-29T08:31:58;53.88;;;28.98;;
35114;SDS011;21292;52.416;13.046;2023-04-29T08:34:32;55.78;;;28.40;;
35114;SDS011;21292;52.416;13.046;2023-04-29T08:37:05;58.97;;;30.27;;
35114;SDS011;21292;52.416;13.046;2023-04-29T08:39:33;52.22;;;28.83;;
35114;SDS011;21292;52.416;13.046;2023-04-29T08:42:06;61.05;;;29.55;;
35114;SDS011;21292;52.416;13.046;2023-04-29T08:44:35;55.35;;;31.40;;
35114;SDS011;21292;52.416;13.046;2023-04-29T08:47:05;62.55;;;31.13;;
35114;SDS011;21292;52.416;13.046;2023-04-29T08:49:33;65.97;;;33.03;;
35114;SDS011;21292;52.416;13.046;2023-04-29T08:52:04;80.40;;;36.38;;
35114;SDS011;21292;52.416;13.046;2023-04-29T08:54:32;75.60;;;36.83;;
35114;SDS011;21292;52.416;13.046;2023-04-29T08:57:02;80.75;;;36.33;;
35114;SDS011;21292;52.416;13.046;2023-04-29T08:59:32;77.30;;;38.15;;
35114;SDS011;21292;52.416;13.046;2023-04-29T09:02:00;77.15;;;37.97;;
35114;SDS011;21292;52.416;13.046;2023-04-29T09:04:36;77.80;;;37.05;;
35114;SDS011;21292;52.416;13.046;2023-04-29T09:07:09;82.97;;;38.88;;
35114;SDS011;21292;52.416;13.046;2023-04-29T09:09:40;75.97;;;38.63;;
35114;SDS011;21292;52.416;13.046;2023-04-29T09:12:10;76.10;;;38.28;;
35114;SDS011;21292;52.416;13.046;2023-04-29T09:14:41;72.47;;;34.17;;
35114;SDS011;21292;52.416;13.046;2023-04-29T09:17:10;75.15;;;36.05;;
35114;SDS011;21292;52.416;13.046;2023-04-29T09:19:43;74.23;;;37.00;;
35114;SDS011;21292;52.416;13.046;2023-04-29T09:22:12;67.68;;;34.53;;
35114;SDS011;21292;52.416;13.046;2023-04-29T09:24:40;69.43;;;33.35;;
35114;SDS011;21292;52.416;13.046;2023-04-29T09:27:10;67.43;;;35.47;;
35114;SDS011;21292;52.416;13.046;2023-04-29T09:29:59;58.63;;;33.22;;
35114;SDS011;21292;52.416;13.046;2023-04-29T09:32:28;64.00;;;34.33;;
35114;SDS011;21292;52.416;13.046;2023-04-29T09:35:08;61.13;;;33.17;;
35114;SDS011;21292;52.416;13.046;2023-04-29T09:37:50;61.75;;;32.72;;
35114;SDS011;21292;52.416;13.046;2023-04-29T09:40:29;62.67;;;34.90;;
35114;SDS011;21292;52.416;13.046;2023-04-29T09:43:12;56.90;;;33.15;;
35114;SDS011;21292;52.416;13.046;2023-04-29T09:45:41;59.85;;;32.72;;
35114;SDS011;21292;52.416;13.046;2023-04-29T09:48:10;60.33;;;33.60;;
35114;SDS011;21292;52.416;13.046;2023-04-29T09:50:57;67.85;;;36.03;;
35114;SDS011;21292;52.416;13.046;2023-04-29T09:53:32;62.47;;;32.67;;
35114;SDS011;21292;52.416;13.046;2023-04-29T09:58:35;60.33;;;34.53;;
35114;SDS011;21292;52.416;13.046;2023-04-29T10:01:06;60.42;;;32.97;;
35114;SDS011;21292;52.416;13.046;2023-04-29T10:03:35;58.60;;;31.63;;
35114;SDS011;21292;52.416;13.046;2023-04-29T10:06:08;52.53;;;31.13;;
35114;SDS011;21292;52.416;13.046;2023-04-29T10:08:36;54.22;;;32.88;;
35114;SDS011;21292;52.416;13.046;2023-04-29T10:11:07;61.42;;;33.17;;
35114;SDS011;21292;52.416;13.046;2023-04-29T10:13:38;66.28;;;34.15;;
35114;SDS011;21292;52.416;13.046;2023-04-29T10:16:14;69.25;;;34.47;;
35114;SDS011;21292;52.416;13.046;2023-04-29T10:18:52;67.57;;;35.80;;
35114;SDS011;21292;52.416;13.046;2023-04-29T10:21:23;63.10;;;34.20;;
35114;SDS011;21292;52.416;13.046;2023-04-29T10:23:55;70.88;;;34.90;;
35114;SDS011;21292;52.416;13.046;2023-04-29T10:26:28;75.78;;;37.15;;
35114;SDS011;21292;52.416;13.046;2023-04-29T10:28:58;63.95;;;36.53;;
35114;SDS011;21292;52.416;13.046;2023-04-29T10:31:27;64.68;;;36.30;;
35114;SDS011;21292;52.416;13.046;2023-04-29T10:33:59;65.70;;;37.63;;
35114;SDS011;21292;52.416;13.046;2023-04-29T10:36:32;68.43;;;39.47;;
35114;SDS011;21292;52.416;13.046;2023-04-29T10:39:08;61.80;;;35.95;;
35114;SDS011;21292;52.416;13.046;2023-04-29T10:41:43;67.43;;;40.78;;
35114;SDS011;21292;52.416;13.046;2023-04-29T10:44:13;70.63;;;39.63;;
35114;SDS011;21292;52.416;13.046;2023-04-29T10:46:41;60.47;;;38.15;;
35114;SDS011;21292;52.416;13.046;2023-04-29T10:49:09;62.30;;;37.22;;
35114;SDS011;21292;52.416;13.046;2023-04-29T10:51:40;57.38;;;35.38;;
35114;SDS011;21292;52.416;13.046;2023-04-29T10:56:40;57.78;;;35.00;;
35114;SDS011;21292;52.416;13.046;2023-04-29T10:59:12;55.00;;;35.13;;
35114;SDS011;21292;52.416;13.046;2023-04-29T11:01:43;56.67;;;34.93;;
35114;SDS011;21292;52.416;13.046;2023-04-29T11:04:13;47.85;;;32.70;;
35114;SDS011;21292;52.416;13.046;2023-04-29T11:06:45;55.67;;;34.22;;
35114;SDS011;21292;52.416;13.046;2023-04-29T11:09:20;51.97;;;34.53;;
35114;SDS011;21292;52.416;13.046;2023-04-29T11:11:55;46.67;;;31.48;;
35114;SDS011;21292;52.416;13.046;2023-04-29T11:14:30;43.38;;;30.23;;
35114;SDS011;21292;52.416;13.046;2023-04-29T11:17:00;46.67;;;29.65;;
35114;SDS011;21292;52.416;13.046;2023-04-29T11:19:30;40.40;;;29.08;;
35114;SDS011;21292;52.416;13.046;2023-04-29T11:22:08;40.88;;;28.83;;
35114;SDS011;21292;52.416;13.046;2023-04-29T11:24:57;43.28;;;29.55;;
35114;SDS011;21292;52.416;13.046;2023-04-29T11:27:28;38.20;;;27.75;;
35114;SDS011;21292;52.416;13.046;2023-04-29T11:29:58;39.60;;;28.83;;
35114;SDS011;21292;52.416;13.046;2023-04-29T11:32:29;37.58;;;26.40;;
35114;SDS011;21292;52.416;13.046;2023-04-29T11:35:08;37.30;;;25.80;;
35114;SDS011;21292;52.416;13.046;2023-04-29T11:37:41;32.25;;;23.17;;
35114;SDS011;21292;52.416;13.046;2023-04-29T11:42:40;29.42;;;22.58;;
35114;SDS011;21292;52.416;13.046;2023-04-29T11:45:10;35.22;;;24.70;;
35114;SDS011;21292;52.416;13.046;2023-04-29T11:47:41;40.38;;;25.02;;
35114;SDS011;21292;52.416;13.046;2023-04-29T11:50:12;30.13;;;22.73;;
35114;SDS011;21292;52.416;13.046;2023-04-29T11:52:49;34.90;;;24.52;;
35114;SDS011;21292;52.416;13.046;2023-04-29T11:55:17;30.17;;;24.20;;
35114;SDS011;21292;52.416;13.046;2023-04-29T11:57:53;36.10;;;24.85;;
35114;SDS011;21292;52.416;13.046;2023-04-29T12:00:21;36.47;;;25.15;;
35114;SDS011;21292;52.416;13.046;2023-04-29T12:02:51;35.20;;;25.38;;
35114;SDS011;21292;52.416;13.046;2023-04-29T12:05:19;34.78;;;24.75;;
35114;SDS011;21292;52.416;13.046;2023-04-29T12:07:49;38.70;;;25.45;;
35114;SDS011;21292;52.416;13.046;2023-04-29T12:10:18;35.95;;;24.38;;
35114;SDS011;21292;52.416;13.046;2023-04-29T12:12:47;32.78;;;22.85;;
35114;SDS011;21292;52.416;13.046;2023-04-29T12:15:15;37.10;;;23.10;;
35114;SDS011;21292;52.416;13.046;2023-04-29T12:17:43;33.70;;;21.90;;
35114;SDS011;21292;52.416;13.046;2023-04-29T12:20:12;28.02;;;20.63;;
35114;SDS011;21292;52.416;13.046;2023-04-29T12:22:41;27.20;;;17.77;;
35114;SDS011;21292;52.416;13.046;2023-04-29T12:25:12;23.38;;;17.13;;
35114;SDS011;21292;52.416;13.046;2023-04-29T12:27:40;24.05;;;16.92;;
35114;SDS011;21292;52.416;13.046;2023-04-29T12:30:09;21.02;;;16.42;;
35114;SDS011;21292;52.416;13.046;2023-04-29T12:32:37;20.90;;;15.57;;
35114;SDS011;21292;52.416;13.046;2023-04-29T12:35:13;22.10;;;15.63;;
35114;SDS011;21292;52.416;13.046;2023-04-29T12:37:42;19.40;;;15.65;;
35114;SDS011;21292;52.416;13.046;2023-04-29T12:40:13;19.98;;;15.63;;
35114;SDS011;21292;52.416;13.046;2023-04-29T12:42:42;21.42;;;14.85;;
35114;SDS011;21292;52.416;13.046;2023-04-29T12:45:24;23.15;;;13.75;;
35114;SDS011;21292;52.416;13.046;2023-04-29T12:47:54;17.92;;;13.02;;
35114;SDS011;21292;52.416;13.046;2023-04-29T12:50:28;17.55;;;12.10;;
35114;SDS011;21292;52.416;13.046;2023-04-29T12:52:58;12.75;;;10.32;;
35114;SDS011;21292;52.416;13.046;2023-04-29T12:55:28;13.70;;;9.65;;
35114;SDS011;21292;52.416;13.046;2023-04-29T12:57:57;13.00;;;10.30;;
35114;SDS011;21292;52.416;13.046;2023-04-29T13:00:27;13.57;;;10.07;;
35114;SDS011;21292;52.416;13.046;2023-04-29T13:02:55;12.98;;;8.95;;
35114;SDS011;21292;52.416;13.046;2023-04-29T13:05:24;13.25;;;8.75;;
35114;SDS011;21292;52.416;13.046;2023-04-29T13:07:52;14.93;;;9.32;;
35114;SDS011;21292;52.416;13.046;2023-04-29T13:10:21;15.20;;;8.93;;
35114;SDS011;21292;52.416;13.046;2023-04-29T13:12:51;15.70;;;9.52;;
35114;SDS011;21292;52.416;13.046;2023-04-29T13:15:19;17.42;;;10.75;;
35114;SDS011;21292;52.416;13.046;2023-04-29T13:17:48;13.85;;;10.95;;
35114;SDS011;21292;52.416;13.046;2023-04-29T13:20:17;18.70;;;11.10;;
35114;SDS011;21292;52.416;13.046;2023-04-29T13:22:47;16.55;;;11.70;;
35114;SDS011;21292;52.416;13.046;2023-04-29T13:25:17;16.15;;;10.77;;
35114;SDS011;21292;52.416;13.046;2023-04-29T13:27:45;17.20;;;10.85;;
35114;SDS011;21292;52.416;13.046;2023-04-29T13:30:15;23.92;;;12.07;;
35114;SDS011;21292;52.416;13.046;2023-04-29T13:32:43;17.35;;;12.70;;
35114;SDS011;21292;52.416;13.046;2023-04-29T13:35:21;23.33;;;12.07;;
35114;SDS011;21292;52.416;13.046;2023-04-29T13:37:49;19.42;;;12.35;;
35114;SDS011;21292;52.416;13.046;2023-04-29T13:40:18;16.35;;;11.73;;
35114;SDS011;21292;52.416;13.046;2023-04-29T13:42:47;14.55;;;11.20;;
35114;SDS011;21292;52.416;13.046;2023-04-29T13:45:32;16.75;;;11.48;;
35114;SDS011;21292;52.416;13.046;2023-04-29T13:48:09;15.80;;;10.70;;
35114;SDS011;21292;52.416;13.046;2023-04-29T13:50:57;12.05;;;10.02;;
35114;SDS011;21292;52.416;13.046;2023-04-29T13:53:28;15.40;;;10.25;;
35114;SDS011;21292;52.416;13.046;2023-04-29T13:56:01;13.30;;;10.03;;
35114;SDS011;21292;52.416;13.046;2023-04-29T13:58:33;14.48;;;10.43;;
35114;SDS011;21292;52.416;13.046;2023-04-29T14:01:26;14.30;;;10.27;;
35114;SDS011;21292;52.416;13.046;2023-04-29T14:03:57;13.73;;;9.43;;
35114;SDS011;21292;52.416;13.046;2023-04-29T14:06:26;14.73;;;10.65;;
35114;SDS011;21292;52.416;13.046;2023-04-29T14:08:56;14.15;;;10.27;;
35114;SDS011;21292;52.416;13.046;2023-04-29T14:11:29;16.35;;;10.15;;
35114;SDS011;21292;52.416;13.046;2023-04-29T14:14:18;13.18;;;10.07;;
35114;SDS011;21292;52.416;13.046;2023-04-29T14:16:49;14.57;;;10.43;;
35114;SDS011;21292;52.416;13.046;2023-04-29T14:19:20;13.80;;;9.43;;
35114;SDS011;21292;52.416;13.046;2023-04-29T14:21:49;16.92;;;9.98;;
35114;SDS011;21292;52.416;13.046;2023-04-29T14:24:18;19.83;;;10.95;;
35114;SDS011;21292;52.416;13.046;2023-04-29T14:26:46;11.13;;;8.93;;
35114;SDS011;21292;52.416;13.046;2023-04-29T14:29:15;16.00;;;9.15;;
35114;SDS011;21292;52.416;13.046;2023-04-29T14:31:43;13.10;;;8.57;;
35114;SDS011;21292;52.416;13.046;2023-04-29T14:34:13;19.38;;;8.82;;
35114;SDS011;21292;52.416;13.046;2023-04-29T14:36:52;14.90;;;9.30;;
35114;SDS011;21292;52.416;13.046;2023-04-29T14:39:24;10.20;;;7.90;;
35114;SDS011;21292;52.416;13.046;2023-04-29T14:41:53;12.07;;;7.85;;
35114;SDS011;21292;52.416;13.046;2023-04-29T14:44:21;16.73;;;8.45;;
35114;SDS011;21292;52.416;13.046;2023-04-29T14:46:49;12.77;;;8.77;;